Time;durP1;ratioP1;P1;durP2;ratioP2;P2;SDS_P1;SDS_P2;PMS_P1;PMS_P2;Temp;Humidity;BMP_temperature;BMP_pressure;BME280_temperature;BME280_humidity;BME280_pressure;Samples;Min_cycle;Max_cycle;Signal;HPM_P1;HPM_P2
2023/03/09 00:03:15;;;;;;;4.78;2.30;;;6.20;97.60;;;;;;10432531;28;20017;-63
2023/03/09 00:08:16;;;;;;;5.68;2.55;;;6.20;97.60;;;;;;10444853;28;20108;-64
2023/03/09 00:13:18;;;;;;;3.67;2.08;;;6.20;97.60;;;;;;10443326;28;20030;-64
2023/03/09 00:18:22;;;;;;;4.88;2.38;;;6.20;97.60;;;;;;10432653;28;20104;-64
2023/03/09 00:23:23;;;;;;;5.65;2.78;;;6.20;97.60;;;;;;10447227;28;20028;-64
2023/03/09 00:28:24;;;;;;;3.83;2.35;;;6.20;97.60;;;;;;10437504;28;20021;-63
2023/03/09 00:33:24;;;;;;;4.80;2.65;;;6.20;97.60;;;;;;10441779;28;20097;-65
2023/03/09 00:38:25;;;;;;;2.92;1.75;;;6.20;97.60;;;;;;10435501;28;20035;-63
2023/03/09 00:43:25;;;;;;;3.38;2.00;;;6.20;97.60;;;;;;10438591;28;20025;-63
2023/03/09 00:48:26;;;;;;;4.82;2.17;;;6.20;97.70;;;;;;10435995;28;20024;-64
2023/03/09 00:53:27;;;;;;;4.07;2.50;;;6.20;97.70;;;;;;10441515;28;20437;-64
2023/03/09 00:58:27;;;;;;;4.60;2.42;;;6.20;97.70;;;;;;10448814;28;20463;-63
2023/03/09 01:03:28;;;;;;;5.15;2.35;;;6.20;97.70;;;;;;10439511;28;20396;-64
2023/03/09 01:08:29;;;;;;;3.88;2.20;;;6.20;97.70;;;;;;10429717;28;20053;-64
2023/03/09 01:13:29;;;;;;;3.40;2.15;;;6.20;97.70;;;;;;10438814;28;20048;-64
2023/03/09 01:18:30;;;;;;;3.47;1.90;;;6.20;97.70;;;;;;10437698;28;20036;-63
2023/03/09 01:23:31;;;;;;;3.55;2.20;;;6.20;97.70;;;;;;10427130;28;20032;-63
2023/03/09 01:28:31;;;;;;;4.90;2.20;;;6.20;97.70;;;;;;10437656;28;20029;-62
2023/03/09 01:33:32;;;;;;;4.55;2.75;;;6.20;97.70;;;;;;10433163;28;20029;-63
2023/03/09 01:38:33;;;;;;;3.33;1.73;;;6.10;97.70;;;;;;10432664;28;20036;-63
2023/03/09 01:43:41;;;;;;;3.53;2.00;;;6.10;97.70;;;;;;10440296;28;20072;-64
2023/03/09 01:48:42;;;;;;;3.60;1.92;;;6.10;97.70;;;;;;10437615;28;20044;-63
2023/03/09 01:53:43;;;;;;;5.22;2.33;;;6.10;97.70;;;;;;10428807;28;20048;-64
2023/03/09 01:58:46;;;;;;;3.13;2.03;;;6.10;97.80;;;;;;10437329;28;20033;-63
2023/03/09 02:03:51;;;;;;;4.20;2.05;;;6.10;97.70;;;;;;10446086;28;20392;-63
2023/03/09 02:09:12;;;;;;;2.83;1.65;;;6.10;97.80;;;;;;10430471;28;20027;-63
2023/03/09 02:14:14;;;;;;;3.92;1.95;;;6.10;97.80;;;;;;10440004;28;20021;-63
2023/03/09 02:19:34;;;;;;;3.90;2.03;;;6.10;97.80;;;;;;10448639;28;20104;-64
2023/03/09 02:25:03;;;;;;;3.55;2.10;;;6.10;97.80;;;;;;10429414;28;20026;-64
2023/03/09 02:30:05;;;;;;;2.97;1.90;;;6.10;97.80;;;;;;10441662;28;20013;-64
2023/03/09 02:35:09;;;;;;;4.30;2.35;;;6.10;97.80;;;;;;10448723;28;20229;-64
2023/03/09 02:40:13;;;;;;;4.60;2.80;;;6.10;97.80;;;;;;10432037;28;20029;-64
2023/03/09 02:45:17;;;;;;;4.13;1.95;;;6.10;97.80;;;;;;10453713;28;20132;-64
2023/03/09 02:50:18;;;;;;;3.67;1.98;;;6.10;97.80;;;;;;10446517;28;20053;-64
2023/03/09 02:55:18;;;;;;;3.97;2.00;;;6.00;97.80;;;;;;10426510;28;20029;-63
2023/03/09 03:00:23;;;;;;;4.43;2.13;;;6.00;97.80;;;;;;10427486;28;20021;-64
2023/03/09 03:05:24;;;;;;;4.30;1.98;;;6.00;97.80;;;;;;10456714;28;20082;-63
2023/03/09 03:10:24;;;;;;;3.38;1.92;;;6.00;97.80;;;;;;10448848;28;20234;-63
2023/03/09 03:15:25;;;;;;;4.68;2.50;;;6.00;97.80;;;;;;10444824;28;20044;-64
2023/03/09 03:20:26;;;;;;;4.57;2.10;;;6.00;97.80;;;;;;10444799;28;20088;-62
2023/03/09 03:25:27;;;;;;;4.88;2.05;;;6.00;97.80;;;;;;10447581;28;20511;-63
2023/03/09 03:30:28;;;;;;;5.65;2.45;;;6.00;97.90;;;;;;10443870;28;20013;-64
2023/03/09 03:35:28;;;;;;;4.68;2.40;;;6.00;97.80;;;;;;10440972;28;20508;-64
2023/03/09 03:40:29;;;;;;;4.97;1.83;;;6.00;97.80;;;;;;10433145;28;20013;-64
2023/03/09 03:45:29;;;;;;;3.22;1.98;;;6.00;97.80;;;;;;10454564;28;20033;-64
2023/03/09 03:50:30;;;;;;;3.85;1.90;;;6.00;97.80;;;;;;10448436;28;20048;-63
2023/03/09 03:55:31;;;;;;;5.55;2.47;;;6.00;97.80;;;;;;10446746;28;20037;-63
2023/03/09 04:00:32;;;;;;;5.30;2.22;;;6.00;97.80;;;;;;10450130;28;20022;-64
2023/03/09 04:05:32;;;;;;;3.85;2.03;;;6.00;97.80;;;;;;10441134;28;20083;-63
2023/03/09 04:10:33;;;;;;;4.70;2.30;;;6.00;97.80;;;;;;10453573;28;20025;-64
2023/03/09 04:15:34;;;;;;;4.05;2.20;;;6.00;97.80;;;;;;10438990;28;20052;-63
2023/03/09 04:20:36;;;;;;;4.03;2.33;;;6.00;97.80;;;;;;10449786;28;20021;-63
2023/03/09 04:25:37;;;;;;;3.75;2.17;;;6.00;97.80;;;;;;10431569;28;20033;-63
2023/03/09 04:30:37;;;;;;;3.28;1.92;;;6.00;97.80;;;;;;10448249;28;20058;-63
2023/03/09 04:35:38;;;;;;;4.55;2.38;;;6.00;97.80;;;;;;10448586;28;20032;-64
2023/03/09 04:40:39;;;;;;;4.53;2.38;;;6.00;97.80;;;;;;10451814;28;20025;-64
2023/03/09 04:45:40;;;;;;;4.53;2.17;;;5.90;97.80;;;;;;10440439;28;20029;-63
2023/03/09 04:50:40;;;;;;;5.65;2.42;;;5.90;97.80;;;;;;10433337;28;20025;-64
2023/03/09 04:55:41;;;;;;;3.72;1.98;;;5.90;97.80;;;;;;10429404;28;20107;-64
2023/03/09 05:00:41;;;;;;;4.18;2.38;;;5.90;97.80;;;;;;10427372;28;20040;-64
2023/03/09 05:05:42;;;;;;;3.78;2.13;;;5.90;97.80;;;;;;10431998;28;20021;-64
2023/03/09 05:10:42;;;;;;;3.67;1.85;;;5.90;97.80;;;;;;10442570;28;20040;-64
2023/03/09 05:15:43;;;;;;;5.88;2.35;;;5.90;97.80;;;;;;10432759;28;20025;-63
2023/03/09 05:20:44;;;;;;;3.40;2.10;;;5.90;97.80;;;;;;10439722;28;20404;-63
2023/03/09 05:25:56;;;;;;;4.65;2.40;;;5.90;97.80;;;;;;10444651;28;20048;-64
2023/03/09 05:30:57;;;;;;;4.93;2.65;;;5.90;97.80;;;;;;10430857;28;20036;-63
2023/03/09 05:35:57;;;;;;;2.85;1.67;;;5.90;97.80;;;;;;10429084;28;20044;-63
2023/03/09 05:41:04;;;;;;;4.30;2.30;;;5.90;97.80;;;;;;10428679;28;20017;-63
2023/03/09 05:46:04;;;;;;;3.22;1.90;;;5.90;97.90;;;;;;10423831;28;20021;-63
2023/03/09 05:51:05;;;;;;;3.83;2.05;;;5.90;97.80;;;;;;10447495;28;20511;-63
2023/03/09 05:56:07;;;;;;;4.47;2.30;;;5.90;97.80;;;;;;10440246;28;20033;-64
2023/03/09 06:01:19;;;;;;;3.65;2.10;;;5.90;97.80;;;;;;10434988;28;20017;-65
2023/03/09 06:06:21;;;;;;;5.28;2.45;;;5.90;97.80;;;;;;10437601;28;20496;-64
2023/03/09 06:11:21;;;;;;;4.95;2.70;;;5.90;97.80;;;;;;10433405;28;20055;-63
2023/03/09 06:16:23;;;;;;;5.47;2.60;;;5.90;97.80;;;;;;10428740;28;20032;-64
2023/03/09 06:21:23;;;;;;;4.43;2.47;;;5.90;97.80;;;;;;10426289;28;20036;-63
2023/03/09 06:26:24;;;;;;;4.45;2.25;;;5.90;97.80;;;;;;10428810;28;20020;-64
2023/03/09 06:31:25;;;;;;;4.00;2.33;;;5.90;97.80;;;;;;10433821;28;20536;-64
2023/03/09 06:36:26;;;;;;;4.53;2.10;;;5.90;97.80;;;;;;10432486;28;20025;-63
2023/03/09 06:41:29;;;;;;;3.80;1.98;;;5.90;97.80;;;;;;10436126;28;20100;-63
2023/03/09 06:46:30;;;;;;;4.53;2.50;;;5.80;97.80;;;;;;10439598;28;20075;-63
2023/03/09 06:51:30;;;;;;;4.22;2.10;;;5.90;97.80;;;;;;10440600;28;20451;-63
2023/03/09 06:56:31;;;;;;;4.80;2.40;;;5.90;97.80;;;;;;10437540;28;20024;-63
2023/03/09 07:01:33;;;;;;;5.80;2.22;;;5.90;97.80;;;;;;10430301;28;20029;-62
2023/03/09 07:06:34;;;;;;;4.40;2.55;;;5.90;97.70;;;;;;10442900;28;20013;-64
2023/03/09 07:11:35;;;;;;;6.32;2.70;;;5.90;97.70;;;;;;10443553;28;20025;-64
2023/03/09 07:16:35;;;;;;;4.43;2.50;;;5.90;97.70;;;;;;10431915;28;20519;-64
2023/03/09 07:21:36;;;;;;;5.95;2.78;;;6.00;97.70;;;;;;10441701;28;20021;-63
2023/03/09 07:26:36;;;;;;;4.93;2.80;;;6.00;97.70;;;;;;10436841;28;20519;-64
2023/03/09 07:31:37;;;;;;;4.40;2.45;;;6.00;97.70;;;;;;10439032;28;20022;-63
2023/03/09 07:36:38;;;;;;;4.80;2.45;;;6.00;97.70;;;;;;10445074;28;20516;-63
2023/03/09 07:41:40;;;;;;;5.53;2.42;;;6.00;97.70;;;;;;10437634;28;20491;-63
2023/03/09 07:46:40;;;;;;;4.93;2.50;;;6.00;97.60;;;;;;10432845;28;20025;-64
2023/03/09 07:51:41;;;;;;;6.40;2.83;;;6.00;97.60;;;;;;10437224;28;20040;-63
2023/03/09 07:56:44;;;;;;;5.93;2.60;;;6.00;97.60;;;;;;10440297;28;20040;-63
2023/03/09 08:01:45;;;;;;;7.03;3.60;;;6.00;97.60;;;;;;10438551;28;20017;-63
2023/03/09 08:06:46;;;;;;;4.40;2.17;;;6.00;97.60;;;;;;10432655;28;20021;-64
2023/03/09 08:11:47;;;;;;;4.95;2.85;;;6.10;97.60;;;;;;10426113;28;20608;-63
2023/03/09 08:16:48;;;;;;;6.03;2.63;;;6.10;97.60;;;;;;10440722;28;20512;-64
2023/03/09 08:21:49;;;;;;;5.47;2.80;;;6.10;97.50;;;;;;10441494;28;20221;-63
2023/03/09 08:26:49;;;;;;;5.53;3.13;;;6.10;97.50;;;;;;10452247;28;20051;-63
2023/03/09 08:31:50;;;;;;;6.07;2.72;;;6.10;97.50;;;;;;10439222;28;20024;-63
2023/03/09 08:36:51;;;;;;;5.85;3.05;;;6.20;97.50;;;;;;10440229;28;20104;-64
2023/03/09 08:41:51;;;;;;;4.70;2.78;;;6.20;97.40;;;;;;10441705;28;20110;-63
2023/03/09 08:46:52;;;;;;;5.15;2.55;;;6.20;97.40;;;;;;10429714;28;20022;-63
2023/03/09 08:51:53;;;;;;;4.30;2.78;;;6.20;97.40;;;;;;10430682;28;20037;-64
2023/03/09 08:56:53;;;;;;;5.05;2.58;;;6.30;97.40;;;;;;10449620;28;20063;-63
2023/03/09 09:01:54;;;;;;;6.13;2.75;;;6.30;97.40;;;;;;10430044;28;20064;-63
2023/03/09 09:06:55;;;;;;;6.32;3.60;;;6.30;97.40;;;;;;10438591;28;20485;-62
2023/03/09 09:11:55;;;;;;;6.10;2.75;;;6.30;97.30;;;;;;10433768;28;20029;-66
2023/03/09 09:16:56;;;;;;;5.35;3.13;;;6.30;97.30;;;;;;10437636;28;20024;-64
2023/03/09 09:21:58;;;;;;;5.55;2.78;;;6.30;97.30;;;;;;10429984;28;20102;-64
2023/03/09 09:26:59;;;;;;;5.13;2.60;;;6.30;97.30;;;;;;10441001;28;20017;-64
2023/03/09 09:32:01;;;;;;;6.25;3.20;;;6.40;97.30;;;;;;10426411;28;20053;-64
2023/03/09 09:37:05;;;;;;;4.35;2.47;;;6.40;97.30;;;;;;10424644;28;20444;-63
2023/03/09 09:42:30;;;;;;;6.78;3.20;;;6.40;97.30;;;;;;10436676;28;20025;-63
2023/03/09 09:47:34;;;;;;;5.43;2.25;;;6.40;97.30;;;;;;10426488;28;20465;-63
2023/03/09 09:53:05;;;;;;;5.32;2.78;;;6.40;97.30;;;;;;10432222;28;20036;-63
2023/03/09 09:58:24;;;;;;;5.78;2.70;;;6.40;97.30;;;;;;10440050;28;20035;-63
2023/03/09 10:03:33;;;;;;;4.53;2.67;;;6.50;97.30;;;;;;10429922;28;20017;-63
2023/03/09 10:08:42;;;;;;;5.60;2.92;;;6.40;97.30;;;;;;10419579;28;20033;-62
2023/03/09 10:14:06;;;;;;;7.07;3.55;;;6.50;97.30;;;;;;10433991;28;20432;-63
2023/03/09 10:19:14;;;;;;;5.40;2.80;;;6.50;97.30;;;;;;10442955;28;20040;-62
2023/03/09 10:24:26;;;;;;;5.03;2.85;;;6.50;97.30;;;;;;10425984;28;20025;-63
2023/03/09 10:29:43;;;;;;;5.78;2.75;;;6.50;97.30;;;;;;10434359;28;20014;-64
2023/03/09 10:35:04;;;;;;;6.25;3.35;;;6.50;97.30;;;;;;10440485;28;20032;-63
2023/03/09 10:40:22;;;;;;;6.85;3.65;;;6.50;97.30;;;;;;10423373;28;20225;-63
2023/03/09 10:45:28;;;;;;;5.10;3.03;;;6.60;97.30;;;;;;10445572;28;20063;-63
2023/03/09 10:50:35;;;;;;;7.32;3.42;;;6.60;97.30;;;;;;10427213;28;20020;-64
2023/03/09 10:55:40;;;;;;;5.32;2.78;;;6.60;97.20;;;;;;10428064;28;20029;-63
2023/03/09 11:01:00;;;;;;;5.88;2.90;;;6.60;97.20;;;;;;10429164;28;20025;-63
2023/03/09 11:06:08;;;;;;;5.13;3.08;;;6.60;97.20;;;;;;10432786;28;20500;-63
2023/03/09 11:11:36;;;;;;;6.57;3.00;;;6.60;97.20;;;;;;10428701;28;20021;-63
2023/03/09 11:16:49;;;;;;;6.20;3.03;;;6.60;97.30;;;;;;10437851;28;20041;-63
2023/03/09 11:22:13;;;;;;;6.55;2.72;;;6.60;97.30;;;;;;10426443;28;20107;-63
2023/03/09 11:27:18;;;;;;;12.13;5.20;;;6.70;97.30;;;;;;10442577;28;20159;-64
2023/03/09 11:32:19;;;;;;;16.65;6.78;;;6.70;97.00;;;;;;10439520;28;20017;-64
2023/03/09 11:37:26;;;;;;;17.25;7.50;;;6.30;97.10;;;;;;10441129;28;20400;-65
2023/03/09 11:42:45;;;;;;;17.38;8.15;;;5.80;97.40;;;;;;10440557;28;20020;-64
2023/03/09 11:47:52;;;;;;;15.82;7.20;;;5.40;98.00;;;;;;10442100;28;20499;-63
2023/03/09 11:53:00;;;;;;;17.83;7.38;;;5.40;98.30;;;;;;10435421;28;20090;-64
2023/03/09 11:58:07;;;;;;;17.00;7.50;;;5.60;98.30;;;;;;10440298;28;20351;-64
2023/03/09 12:03:15;;;;;;;14.32;6.97;;;5.30;98.00;;;;;;10429692;28;20024;-64
2023/03/09 12:08:27;;;;;;;14.75;6.95;;;6.00;97.90;;;;;;10436166;28;20502;-64
2023/03/09 12:13:35;;;;;;;15.90;7.32;;;6.10;97.70;;;;;;10438923;28;20025;-64
2023/03/09 12:18:45;;;;;;;16.83;6.85;;;6.20;97.60;;;;;;10437464;28;20067;-63
2023/03/09 12:23:49;;;;;;;15.10;6.75;;;6.30;97.50;;;;;;10441671;28;20056;-63
2023/03/09 12:29:04;;;;;;;14.55;6.60;;;6.40;97.30;;;;;;10440797;28;20409;-63
2023/03/09 12:34:08;;;;;;;13.02;6.43;;;6.50;97.30;;;;;;10442234;28;20355;-63
2023/03/09 12:39:33;;;;;;;14.30;6.68;;;6.60;97.30;;;;;;10433742;28;20511;-63
2023/03/09 12:44:46;;;;;;;14.73;6.30;;;6.60;97.30;;;;;;10435505;28;20040;-64
2023/03/09 12:49:49;;;;;;;14.93;6.53;;;6.70;97.20;;;;;;10448848;28;20116;-64
2023/03/09 12:55:11;;;;;;;13.77;5.63;;;6.70;97.20;;;;;;10450362;28;20192;-64
2023/03/09 13:00:27;;;;;;;12.43;5.72;;;6.70;97.30;;;;;;10428945;28;20037;-64
2023/03/09 13:05:37;;;;;;;15.32;6.65;;;6.70;97.20;;;;;;10433681;28;20481;-64
2023/03/09 13:10:38;;;;;;;13.35;6.28;;;6.80;97.30;;;;;;10442039;28;20021;-63
2023/03/09 13:15:39;;;;;;;12.70;6.57;;;6.80;97.30;;;;;;10442229;28;20025;-64
2023/03/09 13:20:43;;;;;;;13.10;6.10;;;6.80;97.30;;;;;;10427402;28;20142;-63
2023/03/09 13:25:56;;;;;;;12.48;5.72;;;6.80;97.30;;;;;;10437227;28;20206;-64
2023/03/09 13:31:02;;;;;;;16.55;5.93;;;6.80;97.30;;;;;;10436825;28;20120;-65
2023/03/09 13:36:12;;;;;;;13.23;5.88;;;6.80;97.30;;;;;;10431599;28;20029;-64
2023/03/09 13:41:20;;;;;;;13.30;5.88;;;6.80;97.40;;;;;;10440688;28;20033;-64
2023/03/09 13:46:35;;;;;;;11.65;5.68;;;6.80;97.40;;;;;;10431444;28;20476;-64
2023/03/09 13:52:03;;;;;;;11.73;5.38;;;6.80;97.40;;;;;;10436789;28;20029;-64
2023/03/09 13:57:15;;;;;;;12.68;5.63;;;6.80;97.40;;;;;;10439943;28;20023;-63
2023/03/09 14:02:16;;;;;;;11.88;5.90;;;6.10;97.20;;;;;;10435678;28;20019;-64
2023/03/09 14:07:22;;;;;;;11.05;5.65;;;6.80;97.40;;;;;;10441228;28;20492;-64
2023/03/09 14:12:33;;;;;;;10.32;5.35;;;6.80;97.50;;;;;;10426082;28;20016;-65
2023/03/09 14:17:35;;;;;;;8.95;5.25;;;6.80;97.50;;;;;;10434857;28;20020;-65
2023/03/09 14:22:35;;;;;;;10.65;4.82;;;6.80;97.50;;;;;;10435722;28;20032;-65
2023/03/09 14:27:36;;;;;;;10.63;5.38;;;6.80;97.50;;;;;;10434730;28;20040;-65
2023/03/09 14:32:56;;;;;;;12.25;5.50;;;6.80;97.50;;;;;;10433547;28;20029;-64
2023/03/09 14:37:57;;;;;;;9.45;4.65;;;6.90;97.50;;;;;;10445556;28;20032;-65
2023/03/09 14:43:26;;;;;;;10.60;5.10;;;6.90;97.50;;;;;;10428032;28;20029;-64
2023/03/09 14:48:27;;;;;;;10.60;5.15;;;6.90;97.50;;;;;;10428483;28;20051;-64
2023/03/09 14:53:27;;;;;;;14.60;4.95;;;6.80;97.60;;;;;;10438343;28;20485;-65
2023/03/09 14:58:31;;;;;;;14.77;5.93;;;6.90;97.70;;;;;;10437973;28;20033;-68
2023/03/09 15:03:32;;;;;;;10.80;4.70;;;6.90;97.90;;;;;;10432057;28;20558;-64
2023/03/09 15:08:32;;;;;;;13.10;5.50;;;7.00;97.90;;;;;;10436254;28;20412;-64
2023/03/09 15:13:35;;;;;;;14.30;5.95;;;6.90;97.90;;;;;;10429798;28;20043;-64
2023/03/09 15:18:38;;;;;;;10.48;5.28;;;6.90;98.00;;;;;;10427012;28;20142;-65
2023/03/09 15:23:39;;;;;;;12.00;5.43;;;6.90;98.10;;;;;;10435488;28;20025;-65
2023/03/09 15:28:42;;;;;;;11.60;6.22;;;6.90;98.10;;;;;;10425907;28;20131;-65
2023/03/09 15:33:42;;;;;;;11.57;5.80;;;6.90;98.20;;;;;;10435827;28;20027;-64
2023/03/09 15:38:46;;;;;;;13.30;5.25;;;6.80;98.20;;;;;;10431916;28;20029;-64
2023/03/09 15:43:47;;;;;;;11.13;5.03;;;6.80;98.30;;;;;;10428348;28;20103;-64
2023/03/09 15:48:47;;;;;;;13.60;5.72;;;6.80;98.30;;;;;;10437750;28;20079;-65
2023/03/09 15:53:49;;;;;;;11.40;5.22;;;6.80;98.30;;;;;;10446551;28;20017;-64
2023/03/09 15:58:49;;;;;;;11.45;5.20;;;6.80;98.40;;;;;;10439064;28;20071;-65
2023/03/09 16:03:52;;;;;;;12.38;5.72;;;6.80;98.40;;;;;;10425586;28;20438;-64
2023/03/09 16:08:53;;;;;;;10.65;5.30;;;6.80;98.40;;;;;;10439117;28;20013;-65
2023/03/09 16:13:54;;;;;;;12.40;5.72;;;6.80;98.50;;;;;;10438547;28;20020;-64
2023/03/09 16:18:54;;;;;;;10.07;5.13;;;6.80;98.50;;;;;;10439719;28;20024;-63
2023/03/09 16:23:55;;;;;;;10.25;5.00;;;6.80;98.50;;;;;;10426807;28;20028;-63
2023/03/09 16:28:56;;;;;;;11.23;4.82;;;6.80;98.50;;;;;;10431009;28;20025;-64
2023/03/09 16:33:56;;;;;;;11.23;5.15;;;6.80;98.50;;;;;;10433851;28;20064;-65
2023/03/09 16:39:00;;;;;;;11.68;5.32;;;6.80;98.50;;;;;;10431368;28;20512;-64
2023/03/09 16:44:01;;;;;;;9.98;5.65;;;6.70;98.50;;;;;;10425779;28;20082;-64
2023/03/09 16:49:01;;;;;;;12.15;5.82;;;6.70;98.50;;;;;;10434917;28;20111;-63
2023/03/09 16:54:02;;;;;;;11.43;5.32;;;6.70;98.60;;;;;;10436247;28;20106;-64
2023/03/09 16:59:02;;;;;;;12.73;5.63;;;6.70;98.60;;;;;;10434027;28;20053;-63
2023/03/09 17:04:05;;;;;;;12.82;5.80;;;6.70;98.70;;;;;;10439308;28;20132;-63
2023/03/09 17:09:06;;;;;;;15.20;6.65;;;6.60;98.80;;;;;;10426390;28;20692;-64
2023/03/09 17:14:06;;;;;;;17.35;6.70;;;6.60;98.80;;;;;;10435689;28;20079;-64
2023/03/09 17:19:08;;;;;;;13.13;5.90;;;6.60;98.90;;;;;;10431717;28;20027;-64
2023/03/09 17:24:08;;;;;;;12.65;6.15;;;6.60;98.90;;;;;;10426048;28;20021;-63
2023/03/09 17:29:10;;;;;;;14.05;6.38;;;6.60;98.90;;;;;;10434146;28;20017;-64
2023/03/09 17:34:11;;;;;;;14.60;6.38;;;6.60;98.90;;;;;;10430766;28;20035;-64
2023/03/09 17:39:13;;;;;;;14.20;6.18;;;6.60;98.90;;;;;;10432123;28;20400;-64
2023/03/09 17:44:14;;;;;;;15.25;6.70;;;6.60;98.90;;;;;;10426452;28;20229;-64
2023/03/09 17:49:15;;;;;;;13.60;6.18;;;6.60;98.90;;;;;;10432240;28;20100;-64
2023/03/09 17:54:16;;;;;;;16.15;6.88;;;6.70;99.00;;;;;;10428948;28;20413;-64
2023/03/09 17:59:24;;;;;;;13.13;6.32;;;6.60;99.00;;;;;;10428922;28;20111;-64
2023/03/09 18:04:24;;;;;;;15.10;6.50;;;6.60;99.00;;;;;;10426214;28;20425;-64
2023/03/09 18:09:25;;;;;;;11.93;5.78;;;6.60;99.00;;;;;;10429145;28;20037;-65
2023/03/09 18:14:25;;;;;;;13.15;6.60;;;6.60;99.10;;;;;;10436426;28;20014;-64
2023/03/09 18:19:26;;;;;;;13.90;6.35;;;6.90;99.30;;;;;;10424670;28;20386;-64
2023/03/09 18:24:27;;;;;;;13.35;6.00;;;6.90;99.10;;;;;;10427353;28;20037;-64
2023/03/09 18:29:27;;;;;;;13.55;6.03;;;6.80;99.00;;;;;;10435425;28;20025;-64
2023/03/09 18:34:28;;;;;;;11.30;5.47;;;6.80;99.10;;;;;;10426835;28;20041;-62
2023/03/09 18:39:28;;;;;;;13.07;6.10;;;6.70;99.20;;;;;;10435784;28;20021;-64
2023/03/09 18:44:29;;;;;;;12.93;5.50;;;6.70;99.30;;;;;;10433750;28;20047;-63
2023/03/09 18:49:30;;;;;;;13.25;6.20;;;6.70;99.30;;;;;;10431921;28;20037;-63
2023/03/09 18:54:30;;;;;;;13.00;5.50;;;6.70;99.30;;;;;;10439802;28;20044;-64
2023/03/09 18:59:31;;;;;;;10.63;5.32;;;6.60;99.30;;;;;;10431317;28;20029;-63
2023/03/09 19:04:32;;;;;;;12.38;6.05;;;6.60;99.30;;;;;;10430135;28;20406;-63
2023/03/09 19:09:32;;;;;;;12.20;5.80;;;6.60;99.30;;;;;;10439482;28;20374;-63
2023/03/09 19:14:33;;;;;;;11.20;5.70;;;6.50;99.30;;;;;;10445100;28;20037;-64
2023/03/09 19:19:34;;;;;;;13.57;6.00;;;6.60;99.30;;;;;;10434257;28;20041;-64
2023/03/09 19:24:36;;;;;;;10.45;4.68;;;6.50;99.30;;;;;;10438506;28;20032;-63
2023/03/09 19:29:36;;;;;;;13.52;5.53;;;6.50;99.30;;;;;;10437927;28;20025;-64
2023/03/09 19:34:37;;;;;;;11.75;5.47;;;6.50;99.20;;;;;;10433959;28;20029;-63
2023/03/09 19:39:39;;;;;;;9.05;5.05;;;6.50;99.30;;;;;;10439033;28;20060;-64
2023/03/09 19:44:44;;;;;;;9.25;4.68;;;6.40;99.20;;;;;;10431117;28;20396;-65
2023/03/09 19:49:44;;;;;;;9.82;4.75;;;6.40;99.20;;;;;;10435700;28;20025;-63
2023/03/09 19:54:45;;;;;;;9.60;4.57;;;6.40;99.20;;;;;;10440957;28;20020;-64
2023/03/09 19:59:47;;;;;;;10.02;5.05;;;6.40;99.20;;;;;;10441398;28;20025;-64
2023/03/09 20:04:48;;;;;;;7.60;4.15;;;6.40;99.20;;;;;;10430138;28;20036;-63
2023/03/09 20:09:49;;;;;;;8.95;4.22;;;6.40;99.20;;;;;;10438255;28;20557;-63
2023/03/09 20:14:49;;;;;;;9.75;4.72;;;6.40;99.50;;;;;;10426854;28;20163;-64
2023/03/09 20:19:50;;;;;;;10.00;4.82;;;6.30;99.20;;;;;;10426009;28;20029;-62
2023/03/09 20:24:50;;;;;;;7.45;3.83;;;6.30;99.20;;;;;;10438145;28;20073;-64
2023/03/09 20:29:51;;;;;;;8.30;3.92;;;6.30;99.20;;;;;;10436045;28;20044;-63
2023/03/09 20:34:52;;;;;;;8.82;4.57;;;6.30;99.20;;;;;;10443684;28;20025;-64
2023/03/09 20:39:54;;;;;;;8.95;4.15;;;6.30;99.10;;;;;;10433673;28;20389;-64
2023/03/09 20:44:54;;;;;;;7.70;3.67;;;6.30;99.10;;;;;;10432619;28;20120;-64
2023/03/09 20:49:55;;;;;;;7.20;4.15;;;6.20;99.10;;;;;;10436240;28;20025;-64
2023/03/09 20:54:56;;;;;;;8.32;3.92;;;6.20;99.10;;;;;;10424140;28;20021;-63
2023/03/09 20:59:57;;;;;;;7.60;3.60;;;6.20;99.10;;;;;;10436621;28;20021;-64
2023/03/09 21:04:58;;;;;;;6.68;3.63;;;6.20;99.10;;;;;;10432857;28;20021;-64
2023/03/09 21:09:58;;;;;;;8.27;4.03;;;6.20;99.10;;;;;;10433337;28;20056;-64
2023/03/09 21:15:00;;;;;;;7.95;3.55;;;6.20;99.10;;;;;;10432302;28;20090;-63
2023/03/09 21:20:00;;;;;;;7.50;3.30;;;6.20;99.10;;;;;;10433924;28;20024;-64
2023/03/09 21:25:01;;;;;;;6.28;3.22;;;6.20;99.10;;;;;;10427986;28;20359;-64
2023/03/09 21:30:04;;;;;;;6.75;3.15;;;6.20;99.20;;;;;;10439636;28;20056;-63
2023/03/09 21:35:05;;;;;;;7.10;3.08;;;6.20;99.20;;;;;;10425299;28;20034;-63
2023/03/09 21:40:08;;;;;;;6.35;3.15;;;6.20;99.20;;;;;;10418770;28;20545;-64
2023/03/09 21:45:09;;;;;;;6.00;3.15;;;6.10;99.10;;;;;;10423463;28;20029;-64
2023/03/09 21:50:10;;;;;;;7.10;3.55;;;6.10;99.10;;;;;;10422975;28;20017;-64
2023/03/09 21:55:11;;;;;;;6.72;3.20;;;6.10;99.20;;;;;;10427834;28;20028;-63
2023/03/09 22:00:15;;;;;;;6.32;3.00;;;6.10;99.20;;;;;;10430054;28;20109;-63
2023/03/09 22:05:15;;;;;;;5.18;2.83;;;6.10;99.20;;;;;;10425260;28;20021;-65
2023/03/09 22:10:16;;;;;;;5.72;2.67;;;6.10;99.10;;;;;;10429870;28;20020;-64
2023/03/09 22:15:17;;;;;;;6.20;3.03;;;6.10;99.10;;;;;;10431914;28;20033;-64
2023/03/09 22:20:19;;;;;;;6.25;3.05;;;6.10;99.40;;;;;;10430092;28;20028;-64
2023/03/09 22:25:20;;;;;;;6.15;3.22;;;6.10;99.10;;;;;;10443500;28;20242;-64
2023/03/09 22:30:21;;;;;;;6.75;3.42;;;6.10;99.10;;;;;;10438232;28;20048;-63
2023/03/09 22:35:21;;;;;;;4.88;2.53;;;6.00;99.10;;;;;;10428940;28;20044;-64
2023/03/09 22:40:22;;;;;;;5.88;2.80;;;5.90;99.10;;;;;;10429293;28;20033;-63
2023/03/09 22:45:23;;;;;;;5.63;2.80;;;6.00;99.10;;;;;;10435977;28;20285;-63
2023/03/09 22:50:24;;;;;;;5.45;2.53;;;6.00;99.10;;;;;;10430643;28;20024;-64
2023/03/09 22:55:24;;;;;;;4.85;2.60;;;6.00;99.10;;;;;;10429853;28;20514;-64
2023/03/09 23:00:25;;;;;;;5.70;2.95;;;6.00;99.10;;;;;;10427441;28;20489;-64
2023/03/09 23:05:25;;;;;;;5.70;2.92;;;6.00;99.10;;;;;;10428870;28;20028;-64
2023/03/09 23:10:26;;;;;;;4.05;2.63;;;6.00;99.10;;;;;;10432394;28;20128;-64
2023/03/09 23:15:27;;;;;;;5.43;2.60;;;6.00;99.10;;;;;;10429280;28;20553;-64
2023/03/09 23:20:27;;;;;;;5.43;2.83;;;6.00;99.10;;;;;;10428015;28;20018;-63
2023/03/09 23:25:28;;;;;;;5.82;3.03;;;6.00;99.10;;;;;;10439026;28;20039;-64
2023/03/09 23:30:29;;;;;;;3.90;2.05;;;6.00;99.10;;;;;;10431053;28;20025;-65
2023/03/09 23:35:29;;;;;;;6.18;3.00;;;6.00;99.10;;;;;;10434120;28;20036;-63
2023/03/09 23:40:30;;;;;;;4.68;2.45;;;6.80;99.30;;;;;;10441148;28;20032;-64
2023/03/09 23:45:30;;;;;;;5.53;2.50;;;5.90;99.10;;;;;;10444716;28;20104;-64
2023/03/09 23:50:31;;;;;;;5.20;2.53;;;5.90;99.10;;;;;;10441980;28;20040;-65
2023/03/09 23:55:32;;;;;;;4.63;2.42;;;5.90;99.10;;;;;;10428704;28;20400;-64
